createdAt,value
2023-01-28T00:01:32.965Z,101306.00
2023-01-28T00:04:00.994Z,101309.00
2023-01-28T00:06:28.839Z,101308.00
2023-01-28T00:08:56.517Z,101308.00
2023-01-28T00:11:24.713Z,101315.00
2023-01-28T00:13:55.531Z,101320.00
2023-01-28T00:16:23.640Z,101323.00
2023-01-28T00:18:52.110Z,101321.00
2023-01-28T00:21:19.954Z,101311.00
2023-01-28T00:23:55.407Z,101310.00
2023-01-28T00:26:24.700Z,101303.00
2023-01-28T00:28:52.513Z,101298.00
2023-01-28T00:31:22.613Z,101306.00
2023-01-28T00:33:51.625Z,101301.00
2023-01-28T00:36:21.027Z,101304.00
2023-01-28T00:38:53.935Z,101297.00
2023-01-28T00:41:23.420Z,101302.00
2023-01-28T00:43:52.667Z,101306.00
2023-01-28T00:46:22.317Z,101305.00
2023-01-28T00:48:50.487Z,101296.00
2023-01-28T00:51:20.338Z,101304.00
2023-01-28T00:53:50.127Z,101304.00
2023-01-28T00:56:19.715Z,101307.00
2023-01-28T00:58:47.857Z,101312.00
2023-01-28T01:01:18.623Z,101312.00
2023-01-28T01:03:47.251Z,101308.00
2023-01-28T01:06:15.892Z,101313.00
2023-01-28T01:08:50.714Z,101321.00
2023-01-28T01:11:19.438Z,101322.00
2023-01-28T01:13:52.579Z,101324.00
2023-01-28T01:16:20.700Z,101323.00
2023-01-28T01:18:50.975Z,101321.00
2023-01-28T01:21:21.524Z,101325.00
2023-01-28T01:23:49.731Z,101325.00
2023-01-28T01:26:20.123Z,101331.00
2023-01-28T01:28:48.503Z,101331.00
2023-01-28T01:31:18.347Z,101335.00
2023-01-28T01:33:48.275Z,101332.00
2023-01-28T01:36:18.771Z,101340.00
2023-01-28T01:38:47.023Z,101331.00
2023-01-28T01:41:29.004Z,101337.00
2023-01-28T01:44:04.832Z,101331.00
2023-01-28T01:46:40.358Z,101342.00
2023-01-28T01:49:16.073Z,101343.00
2023-01-28T01:51:44.078Z,101331.00
2023-01-28T01:54:12.227Z,101337.00
2023-01-28T01:56:42.567Z,101337.00
2023-01-28T01:59:13.316Z,101326.00
2023-01-28T02:01:41.723Z,101329.00
2023-01-28T02:04:14.352Z,101330.00
2023-01-28T02:06:43.182Z,101326.00
2023-01-28T02:09:23.751Z,101337.00
2023-01-28T02:11:53.174Z,101337.00
2023-01-28T02:14:30.696Z,101337.00
2023-01-28T02:17:00.854Z,101333.00
2023-01-28T02:19:38.172Z,101334.00
2023-01-28T02:22:34.629Z,101339.00
2023-01-28T02:25:26.852Z,101340.00
2023-01-28T02:28:17.753Z,101340.00
2023-01-28T02:30:51.824Z,101335.00
2023-01-28T02:33:46.034Z,101337.00
2023-01-28T02:36:40.857Z,101335.00
2023-01-28T02:39:16.971Z,101335.00
2023-01-28T02:42:10.526Z,101338.00
2023-01-28T02:44:40.386Z,101339.00
2023-01-28T02:47:30.945Z,101340.00
2023-01-28T02:50:04.654Z,101341.00
2023-01-28T02:52:53.565Z,101338.00
2023-01-28T02:55:47.577Z,101330.00
2023-01-28T02:58:59.812Z,101340.00
2023-01-28T03:01:38.787Z,101338.00
2023-01-28T03:04:12.613Z,101342.00
2023-01-28T03:06:48.585Z,101333.00
2023-01-28T03:09:28.491Z,101334.00
2023-01-28T03:12:41.397Z,101325.00
2023-01-28T03:15:35.147Z,101339.00
2023-01-28T03:18:25.539Z,101338.00
2023-01-28T03:21:32.270Z,101333.00
2023-01-28T03:24:30.691Z,101332.00
2023-01-28T03:27:32.655Z,101337.00
2023-01-28T03:30:41.980Z,101345.00
2023-01-28T03:33:36.048Z,101344.00
2023-01-28T03:36:22.869Z,101355.00
2023-01-28T03:38:50.842Z,101348.00
2023-01-28T03:41:26.717Z,101346.00
2023-01-28T03:43:56.656Z,101345.00
2023-01-28T03:46:24.558Z,101342.00
2023-01-28T03:48:52.469Z,101335.00
2023-01-28T03:51:20.556Z,101332.00
2023-01-28T03:53:48.489Z,101333.00
2023-01-28T03:56:18.742Z,101336.00
2023-01-28T03:58:53.179Z,101337.00
2023-01-28T04:01:21.722Z,101341.00
2023-01-28T04:03:50.186Z,101342.00
2023-01-28T04:06:29.172Z,101349.00
2023-01-28T04:09:15.726Z,101336.00
2023-01-28T04:11:51.121Z,101342.00
2023-01-28T04:14:26.310Z,101350.00
2023-01-28T04:17:04.100Z,101350.00
2023-01-28T04:19:37.565Z,101339.00
2023-01-28T04:22:10.525Z,101348.00
2023-01-28T04:24:39.409Z,101352.00
2023-01-28T04:27:07.198Z,101360.00
2023-01-28T04:29:35.176Z,101352.00
2023-01-28T04:32:22.874Z,101360.00
2023-01-28T04:35:11.762Z,101363.00
2023-01-28T04:37:58.181Z,101367.00
2023-01-28T04:40:51.304Z,101364.00
2023-01-28T04:43:27.808Z,101363.00
2023-01-28T04:46:13.061Z,101359.00
2023-01-28T04:48:43.941Z,101356.00
2023-01-28T04:51:30.589Z,101372.00
2023-01-28T04:54:17.066Z,101368.00
2023-01-28T04:56:45.357Z,101376.00
2023-01-28T04:59:13.498Z,101379.00
2023-01-28T05:01:42.494Z,101376.00
2023-01-28T05:04:10.324Z,101376.00
2023-01-28T05:06:39.884Z,101378.00
2023-01-28T05:09:11.845Z,101375.00
2023-01-28T05:11:40.594Z,101380.00
2023-01-28T05:14:09.667Z,101388.00
2023-01-28T05:17:00.980Z,101383.00
2023-01-28T05:19:29.089Z,101388.00
2023-01-28T05:21:58.966Z,101392.00
2023-01-28T05:24:46.967Z,101391.00
2023-01-28T05:27:15.336Z,101383.00
2023-01-28T05:29:43.280Z,101385.00
2023-01-28T05:32:11.189Z,101387.00
2023-01-28T05:34:38.991Z,101380.00
2023-01-28T05:37:14.940Z,101382.00
2023-01-28T05:39:42.931Z,101385.00
2023-01-28T05:42:11.093Z,101380.00
2023-01-28T05:44:44.368Z,101372.00
2023-01-28T05:47:38.928Z,101386.00
2023-01-28T05:50:21.343Z,101374.00
2023-01-28T05:53:08.366Z,101375.00
2023-01-28T05:55:38.019Z,101376.00
2023-01-28T05:58:06.024Z,101382.00
2023-01-28T06:00:34.159Z,101381.00
2023-01-28T06:03:04.223Z,101380.00
2023-01-28T06:05:32.561Z,101387.00
2023-01-28T06:08:02.213Z,101389.00
2023-01-28T06:10:30.390Z,101384.00
2023-01-28T06:12:58.355Z,101388.00
2023-01-28T06:15:44.957Z,101386.00
2023-01-28T06:18:39.269Z,101383.00
2023-01-28T06:21:07.380Z,101384.00
2023-01-28T06:23:35.262Z,101387.00
2023-01-28T06:26:07.252Z,101387.00
2023-01-28T06:28:36.832Z,101393.00
2023-01-28T06:31:05.133Z,101391.00
2023-01-28T06:33:32.998Z,101388.00
2023-01-28T06:36:04.196Z,101386.00
2023-01-28T06:38:32.062Z,101391.00
2023-01-28T06:40:59.901Z,101390.00
2023-01-28T06:43:28.357Z,101389.00
2023-01-28T06:45:59.700Z,101379.00
2023-01-28T06:48:28.691Z,101397.00
2023-01-28T06:50:56.452Z,101390.00
2023-01-28T06:53:24.420Z,101397.00
2023-01-28T06:55:52.313Z,101401.00
2023-01-28T06:58:20.250Z,101404.00
2023-01-28T07:00:48.077Z,101401.00
2023-01-28T07:03:16.973Z,101392.00
2023-01-28T07:05:44.991Z,101405.00
2023-01-28T07:08:12.882Z,101403.00
2023-01-28T07:10:40.624Z,101403.00
2023-01-28T07:13:08.610Z,101405.00
2023-01-28T07:15:36.942Z,101404.00
2023-01-28T07:18:04.857Z,101411.00
2023-01-28T07:20:32.661Z,101393.00
2023-01-28T07:23:00.504Z,101398.00
2023-01-28T07:25:28.199Z,101393.00
2023-01-28T07:27:55.965Z,101397.00
2023-01-28T07:30:24.398Z,101398.00
2023-01-28T07:32:56.043Z,101399.00
2023-01-28T07:35:24.091Z,101398.00
2023-01-28T07:37:53.622Z,101399.00
2023-01-28T07:40:22.131Z,101403.00
2023-01-28T07:42:50.177Z,101405.00
2023-01-28T07:45:23.689Z,101413.00
2023-01-28T07:47:58.921Z,101412.00
2023-01-28T07:50:28.527Z,101397.00
2023-01-28T07:52:57.221Z,101401.00
2023-01-28T07:55:25.676Z,101399.00
2023-01-28T07:57:55.991Z,101400.00
2023-01-28T08:00:25.683Z,101418.00
2023-01-28T08:02:58.033Z,101414.00
2023-01-28T08:05:27.725Z,101406.00
2023-01-28T08:07:55.850Z,101407.00
2023-01-28T08:10:23.711Z,101411.00
2023-01-28T08:12:55.708Z,101423.00
2023-01-28T08:15:24.831Z,101417.00
2023-01-28T08:17:56.299Z,101415.00
2023-01-28T08:20:25.370Z,101419.00
2023-01-28T08:22:53.292Z,101424.00
2023-01-28T08:25:21.421Z,101414.00
2023-01-28T08:27:49.516Z,101419.00
2023-01-28T08:30:17.909Z,101425.00
2023-01-28T08:32:45.841Z,101432.00
2023-01-28T08:35:13.759Z,101432.00
2023-01-28T08:37:41.541Z,101434.00
2023-01-28T08:40:10.008Z,101438.00
2023-01-28T08:42:37.993Z,101450.00
2023-01-28T08:45:06.747Z,101448.00
2023-01-28T08:47:37.250Z,101453.00
2023-01-28T08:50:07.177Z,101458.00
2023-01-28T08:52:34.997Z,101457.00
2023-01-28T08:55:05.791Z,101452.00
2023-01-28T08:57:33.610Z,101466.00
2023-01-28T09:00:01.435Z,101469.00
2023-01-28T09:02:32.139Z,101459.00
2023-01-28T09:05:00.702Z,101470.00
2023-01-28T09:07:28.736Z,101485.00
2023-01-28T09:09:56.643Z,101486.00
2023-01-28T09:12:24.595Z,101488.00
2023-01-28T09:14:53.128Z,101490.00
2023-01-28T09:17:21.711Z,101493.00
2023-01-28T09:19:49.519Z,101499.00
2023-01-28T09:22:17.581Z,101499.00
2023-01-28T09:24:45.474Z,101501.00
2023-01-28T09:27:13.831Z,101496.00
2023-01-28T09:29:41.894Z,101486.00
2023-01-28T09:32:10.010Z,101496.00
2023-01-28T09:34:38.008Z,101494.00
2023-01-28T09:37:05.785Z,101482.00
2023-01-28T09:39:33.723Z,101490.00
2023-01-28T09:42:13.666Z,101502.00
2023-01-28T09:45:00.242Z,101521.00
2023-01-28T09:47:42.102Z,101515.00
2023-01-28T09:50:32.529Z,101516.00
2023-01-28T09:53:28.685Z,101517.00
2023-01-28T09:56:02.687Z,101527.00
2023-01-28T09:58:30.590Z,101518.00
2023-01-28T10:01:24.767Z,101516.00
2023-01-28T10:04:23.522Z,101513.00
2023-01-28T10:07:28.002Z,101524.00
2023-01-28T10:10:14.076Z,101521.00
2023-01-28T10:13:21.777Z,101526.00
2023-01-28T10:15:59.441Z,101529.00
2023-01-28T10:18:52.753Z,101533.00
2023-01-28T10:21:31.765Z,101531.00
2023-01-28T10:24:02.545Z,101527.00
2023-01-28T10:26:36.206Z,101525.00
2023-01-28T10:29:19.858Z,101512.00
2023-01-28T10:32:17.278Z,101509.00
2023-01-28T10:34:45.810Z,101515.00
2023-01-28T10:37:17.079Z,101514.00
2023-01-28T10:39:45.660Z,101510.00
2023-01-28T10:42:39.375Z,101503.00
2023-01-28T10:45:21.736Z,101503.00
2023-01-28T10:47:53.392Z,101506.00
2023-01-28T10:50:29.541Z,101508.00
2023-01-28T10:53:02.786Z,101497.00
2023-01-28T10:55:50.520Z,101500.00
2023-01-28T10:58:32.583Z,101495.00
2023-01-28T11:01:08.055Z,101504.00
2023-01-28T11:03:36.131Z,101508.00
2023-01-28T11:06:04.314Z,101496.00
2023-01-28T11:08:42.714Z,101500.00
2023-01-28T11:11:15.892Z,101492.00
2023-01-28T11:13:54.594Z,101491.00
2023-01-28T11:16:22.925Z,101488.00
2023-01-28T11:18:55.949Z,101501.00
2023-01-28T11:21:29.204Z,101490.00
2023-01-28T11:24:30.373Z,101486.00
2023-01-28T11:26:59.638Z,101494.00
2023-01-28T11:29:32.086Z,101496.00
2023-01-28T11:32:00.751Z,101498.00
2023-01-28T11:34:34.662Z,101500.00
2023-01-28T11:37:06.055Z,101495.00
2023-01-28T11:39:33.939Z,101499.00
2023-01-28T11:42:13.596Z,101494.00
2023-01-28T11:44:41.505Z,101494.00
2023-01-28T11:47:39.936Z,101502.00
2023-01-28T11:50:13.494Z,101495.00
2023-01-28T11:53:05.938Z,101495.00
2023-01-28T11:56:12.265Z,101494.00
2023-01-28T11:58:59.893Z,101482.00
2023-01-28T12:01:49.152Z,101474.00
2023-01-28T12:04:41.876Z,101478.00
2023-01-28T12:07:25.352Z,101471.00
2023-01-28T12:10:02.150Z,101465.00
2023-01-28T12:12:51.834Z,101471.00
2023-01-28T12:15:25.862Z,101470.00
2023-01-28T12:18:23.077Z,101468.00
2023-01-28T12:21:10.968Z,101451.00
2023-01-28T12:23:52.329Z,101454.00
2023-01-28T12:26:47.107Z,101450.00
2023-01-28T12:29:19.237Z,101456.00
2023-01-28T12:31:56.636Z,101449.00
2023-01-28T12:35:00.574Z,101435.00
2023-01-28T12:38:03.254Z,101431.00
2023-01-28T12:41:12.699Z,101441.00
2023-01-28T12:44:02.807Z,101429.00
2023-01-28T12:46:41.565Z,101415.00
2023-01-28T12:49:12.211Z,101419.00
2023-01-28T12:51:54.123Z,101422.00
2023-01-28T12:54:29.169Z,101418.00
2023-01-28T12:56:57.086Z,101417.00
2023-01-28T12:59:44.793Z,101411.00
2023-01-28T13:02:12.583Z,101415.00
2023-01-28T13:05:08.375Z,101415.00
2023-01-28T13:07:39.875Z,101409.00
2023-01-28T13:10:16.925Z,101401.00
2023-01-28T13:12:45.867Z,101383.00
2023-01-28T13:15:16.216Z,101374.00
2023-01-28T13:18:05.905Z,101371.00
2023-01-28T13:20:55.568Z,101362.00
2023-01-28T13:23:37.338Z,101363.00
2023-01-28T13:26:23.073Z,101348.00
2023-01-28T13:28:53.739Z,101341.00
2023-01-28T13:31:24.191Z,101335.00
2023-01-28T13:33:54.949Z,101341.00
2023-01-28T13:36:29.918Z,101335.00
2023-01-28T13:39:16.281Z,101325.00
2023-01-28T13:41:53.148Z,101339.00
2023-01-28T13:44:31.952Z,101347.00
2023-01-28T13:47:16.133Z,101347.00
2023-01-28T13:49:49.947Z,101350.00
2023-01-28T13:52:33.700Z,101377.00
2023-01-28T13:55:04.358Z,101373.00
2023-01-28T13:57:57.360Z,101364.00
2023-01-28T14:00:51.880Z,101358.00
2023-01-28T14:03:46.847Z,101366.00
2023-01-28T14:06:33.324Z,101367.00
2023-01-28T14:09:22.057Z,101380.00
2023-01-28T14:12:11.835Z,101387.00
2023-01-28T14:15:21.533Z,101402.00
2023-01-28T14:17:55.729Z,101393.00
2023-01-28T14:20:33.312Z,101384.00
2023-01-28T14:23:04.170Z,101404.00
2023-01-28T14:25:43.396Z,101410.00
2023-01-28T14:28:18.013Z,101401.00
2023-01-28T14:31:01.781Z,101418.00
2023-01-28T14:33:29.740Z,101421.00
2023-01-28T14:35:58.274Z,101413.00
2023-01-28T14:38:26.015Z,101417.00
2023-01-28T14:40:55.121Z,101418.00
2023-01-28T14:43:25.605Z,101419.00
2023-01-28T14:46:08.965Z,101410.00
2023-01-28T14:48:45.862Z,101401.00
2023-01-28T14:51:19.662Z,101398.00
2023-01-28T14:54:05.987Z,101400.00
2023-01-28T14:56:45.766Z,101389.00
2023-01-28T14:59:25.370Z,101389.00
2023-01-28T15:01:58.007Z,101395.00
2023-01-28T15:04:31.076Z,101397.00
2023-01-28T15:07:38.994Z,101401.00
2023-01-28T15:10:16.144Z,101397.00
2023-01-28T15:12:51.564Z,101392.00
2023-01-28T15:15:25.749Z,101380.00
2023-01-28T15:17:54.564Z,101384.00
2023-01-28T15:20:24.788Z,101386.00
2023-01-28T15:22:53.680Z,101383.00
2023-01-28T15:25:23.414Z,101388.00
2023-01-28T15:27:52.835Z,101397.00
2023-01-28T15:30:26.743Z,101396.00
2023-01-28T15:33:20.670Z,101411.00
2023-01-28T15:35:56.158Z,101414.00
2023-01-28T15:38:26.217Z,101414.00
2023-01-28T15:40:59.887Z,101428.00
2023-01-28T15:43:33.277Z,101429.00
2023-01-28T15:46:04.287Z,101422.00
2023-01-28T15:48:33.923Z,101415.00
2023-01-28T15:51:04.670Z,101412.00
2023-01-28T15:53:42.349Z,101416.00
2023-01-28T15:56:12.091Z,101413.00
2023-01-28T15:58:43.031Z,101413.00
2023-01-28T16:01:11.703Z,101408.00
2023-01-28T16:03:42.147Z,101408.00
2023-01-28T16:06:22.211Z,101407.00
2023-01-28T16:08:59.135Z,101430.00
2023-01-28T16:11:41.871Z,101427.00
2023-01-28T16:14:27.913Z,101437.00
2023-01-28T16:16:56.653Z,101429.00
2023-01-28T16:19:39.996Z,101424.00
2023-01-28T16:22:09.035Z,101423.00
2023-01-28T16:24:37.162Z,101438.00
2023-01-28T16:27:21.697Z,101455.00
2023-01-28T16:29:49.420Z,101464.00
2023-01-28T16:32:30.869Z,101471.00
2023-01-28T16:35:02.916Z,101467.00
2023-01-28T16:37:30.893Z,101474.00
2023-01-28T16:40:00.405Z,101473.00
2023-01-28T16:42:31.012Z,101463.00
2023-01-28T16:44:58.953Z,101467.00
2023-01-28T16:47:29.397Z,101461.00
2023-01-28T16:49:57.402Z,101451.00
2023-01-28T16:52:25.301Z,101451.00
2023-01-28T16:54:53.108Z,101460.00
2023-01-28T16:57:22.371Z,101462.00
2023-01-28T16:59:50.293Z,101463.00
2023-01-28T17:02:18.213Z,101452.00
2023-01-28T17:04:46.120Z,101452.00
2023-01-28T17:07:13.922Z,101466.00
2023-01-28T17:09:41.779Z,101467.00
2023-01-28T17:12:09.728Z,101462.00
2023-01-28T17:14:39.330Z,101456.00
2023-01-28T17:17:07.399Z,101457.00
2023-01-28T17:19:35.432Z,101466.00
2023-01-28T17:22:03.251Z,101467.00
2023-01-28T17:24:31.211Z,101453.00
2023-01-28T17:26:59.408Z,101442.00
2023-01-28T17:29:27.356Z,101452.00
2023-01-28T17:31:55.366Z,101454.00
2023-01-28T17:34:23.264Z,101453.00
2023-01-28T17:36:53.599Z,101466.00
2023-01-28T17:39:21.696Z,101475.00
2023-01-28T17:41:52.356Z,101470.00
2023-01-28T17:44:20.680Z,101466.00
2023-01-28T17:46:48.591Z,101470.00
2023-01-28T17:49:16.377Z,101473.00
2023-01-28T17:51:44.888Z,101466.00
2023-01-28T17:54:12.792Z,101459.00
2023-01-28T17:56:40.534Z,101464.00
2023-01-28T17:59:09.347Z,101468.00
2023-01-28T18:01:37.477Z,101470.00
2023-01-28T18:04:07.806Z,101471.00
2023-01-28T18:06:36.487Z,101464.00
2023-01-28T18:09:05.327Z,101451.00
2023-01-28T18:11:33.251Z,101456.00
2023-01-28T18:14:01.215Z,101467.00
2023-01-28T18:16:29.056Z,101470.00
2023-01-28T18:18:56.771Z,101486.00
2023-01-28T18:21:53.823Z,101494.00
2023-01-28T18:24:26.197Z,101495.00
2023-01-28T18:27:02.565Z,101490.00
2023-01-28T18:29:31.750Z,101479.00
2023-01-28T18:32:00.626Z,101484.00
2023-01-28T18:34:31.763Z,101468.00
2023-01-28T18:37:03.771Z,101475.00
2023-01-28T18:39:31.597Z,101482.00
2023-01-28T18:42:02.874Z,101470.00
2023-01-28T18:44:32.069Z,101479.00
2023-01-28T18:47:00.030Z,101487.00
2023-01-28T18:49:27.785Z,101489.00
2023-01-28T18:51:55.678Z,101485.00
2023-01-28T18:54:23.990Z,101488.00
2023-01-28T18:56:51.857Z,101494.00
2023-01-28T18:59:19.859Z,101499.00
2023-01-28T19:01:48.152Z,101501.00
2023-01-28T19:04:16.651Z,101496.00
2023-01-28T19:06:45.194Z,101488.00
2023-01-28T19:09:17.487Z,101502.00
2023-01-28T19:11:46.259Z,101502.00
2023-01-28T19:14:16.493Z,101498.00
2023-01-28T19:16:44.850Z,101509.00
2023-01-28T19:19:12.603Z,101506.00
2023-01-28T19:21:41.277Z,101505.00
2023-01-28T19:24:13.978Z,101501.00
2023-01-28T19:26:46.191Z,101502.00
2023-01-28T19:29:16.353Z,101499.00
2023-01-28T19:31:48.877Z,101506.00
2023-01-28T19:34:17.172Z,101506.00
2023-01-28T19:36:45.425Z,101508.00
2023-01-28T19:39:13.959Z,101507.00
2023-01-28T19:41:42.092Z,101512.00
2023-01-28T19:44:10.591Z,101500.00
2023-01-28T19:46:38.390Z,101505.00
2023-01-28T19:49:06.641Z,101506.00
2023-01-28T19:51:34.527Z,101498.00
2023-01-28T19:54:02.339Z,101494.00
2023-01-28T19:56:30.770Z,101497.00
2023-01-28T19:59:00.573Z,101491.00
2023-01-28T20:01:30.606Z,101490.00
2023-01-28T20:04:00.650Z,101485.00
2023-01-28T20:06:32.568Z,101479.00
2023-01-28T20:09:22.383Z,101473.00
2023-01-28T20:11:50.308Z,101477.00
2023-01-28T20:14:18.505Z,101475.00
2023-01-28T20:16:46.540Z,101476.00
2023-01-28T20:19:16.631Z,101473.00
2023-01-28T20:21:47.540Z,101482.00
2023-01-28T20:24:15.883Z,101486.00
2023-01-28T20:26:45.353Z,101481.00
2023-01-28T20:29:18.531Z,101484.00
2023-01-28T20:31:54.722Z,101481.00
2023-01-28T20:34:28.923Z,101473.00
2023-01-28T20:36:56.726Z,101468.00
2023-01-28T20:39:24.428Z,101458.00
2023-01-28T20:41:52.277Z,101462.00
2023-01-28T20:44:20.166Z,101465.00
2023-01-28T20:46:47.974Z,101460.00
2023-01-28T20:49:15.871Z,101457.00
2023-01-28T20:51:44.366Z,101467.00
2023-01-28T20:54:13.812Z,101464.00
2023-01-28T20:56:41.867Z,101468.00
2023-01-28T20:59:11.178Z,101460.00
2023-01-28T21:01:39.129Z,101465.00
2023-01-28T21:04:10.542Z,101459.00
2023-01-28T21:06:38.686Z,101459.00
2023-01-28T21:09:06.928Z,101461.00
2023-01-28T21:11:34.949Z,101459.00
2023-01-28T21:14:02.884Z,101461.00
2023-01-28T21:16:30.767Z,101463.00
2023-01-28T21:18:58.700Z,101467.00
2023-01-28T21:21:28.271Z,101461.00
2023-01-28T21:23:58.975Z,101462.00
2023-01-28T21:26:27.582Z,101461.00
2023-01-28T21:28:58.422Z,101464.00
2023-01-28T21:31:29.869Z,101457.00
2023-01-28T21:33:58.987Z,101462.00
2023-01-28T21:36:27.315Z,101459.00
2023-01-28T21:38:57.593Z,101454.00
2023-01-28T21:41:25.976Z,101450.00
2023-01-28T21:43:55.258Z,101450.00
2023-01-28T21:46:24.723Z,101456.00
2023-01-28T21:49:00.605Z,101455.00
2023-01-28T21:51:46.456Z,101451.00
2023-01-28T21:54:19.479Z,101447.00
2023-01-28T21:56:48.910Z,101456.00
2023-01-28T21:59:30.822Z,101459.00
2023-01-28T22:02:03.402Z,101461.00
2023-01-28T22:04:36.893Z,101452.00
2023-01-28T22:07:07.336Z,101469.00
2023-01-28T22:09:35.809Z,101455.00
2023-01-28T22:12:05.211Z,101455.00
2023-01-28T22:14:33.261Z,101460.00
2023-01-28T22:17:04.042Z,101452.00
2023-01-28T22:19:31.882Z,101463.00
2023-01-28T22:22:00.137Z,101462.00
2023-01-28T22:24:31.709Z,101458.00
2023-01-28T22:26:59.984Z,101459.00
2023-01-28T22:29:27.797Z,101465.00
2023-01-28T22:31:56.237Z,101459.00
2023-01-28T22:34:24.408Z,101456.00
2023-01-28T22:36:52.591Z,101455.00
2023-01-28T22:39:23.441Z,101455.00
2023-01-28T22:41:51.089Z,101442.00
2023-01-28T22:44:20.148Z,101438.00
2023-01-28T22:46:50.859Z,101439.00
2023-01-28T22:49:18.842Z,101438.00
2023-01-28T22:51:46.823Z,101436.00
2023-01-28T22:54:15.144Z,101437.00
2023-01-28T22:56:43.126Z,101429.00
2023-01-28T22:59:11.945Z,101431.00
2023-01-28T23:01:40.579Z,101427.00
2023-01-28T23:04:12.452Z,101426.00
2023-01-28T23:06:40.384Z,101427.00
2023-01-28T23:09:08.142Z,101418.00
2023-01-28T23:11:36.065Z,101419.00
2023-01-28T23:14:26.410Z,101416.00
2023-01-28T23:17:12.595Z,101417.00
2023-01-28T23:19:58.701Z,101423.00
2023-01-28T23:22:48.996Z,101412.00
2023-01-28T23:25:17.020Z,101413.00
2023-01-28T23:27:45.212Z,101428.00
2023-01-28T23:30:14.807Z,101419.00
2023-01-28T23:32:49.652Z,101415.00
2023-01-28T23:35:19.331Z,101411.00
2023-01-28T23:37:47.959Z,101425.00
2023-01-28T23:40:17.067Z,101411.00
2023-01-28T23:42:51.831Z,101405.00
2023-01-28T23:45:20.191Z,101406.00
2023-01-28T23:47:48.640Z,101397.00
2023-01-28T23:50:17.062Z,101389.00
2023-01-28T23:52:44.996Z,101396.00
2023-01-28T23:55:12.847Z,101405.00
2023-01-28T23:57:41.090Z,101406.00
